createdAt,value
2022-08-25T00:01:14.266Z,22.69
2022-08-25T00:03:41.712Z,22.70
2022-08-25T00:06:11.272Z,22.64
2022-08-25T00:08:39.005Z,22.55
2022-08-25T00:11:08.130Z,22.44
2022-08-25T00:13:34.554Z,22.39
2022-08-25T00:16:01.025Z,22.38
2022-08-25T00:18:27.773Z,22.28
2022-08-25T00:20:54.275Z,22.19
2022-08-25T00:23:20.884Z,22.13
2022-08-25T00:25:47.629Z,22.11
2022-08-25T00:28:16.692Z,22.03
2022-08-25T00:30:44.003Z,22.00
2022-08-25T00:33:11.084Z,21.98
2022-08-25T00:35:38.172Z,21.90
2022-08-25T00:38:04.705Z,21.91
2022-08-25T00:40:31.434Z,21.94
2022-08-25T00:42:57.946Z,21.92
2022-08-25T00:45:24.674Z,21.86
2022-08-25T00:47:51.158Z,21.82
2022-08-25T00:50:18.035Z,21.82
2022-08-25T00:52:48.184Z,21.84
2022-08-25T00:55:21.710Z,21.86
2022-08-25T00:57:55.375Z,21.96
2022-08-25T01:00:45.263Z,22.05
2022-08-25T01:03:12.377Z,22.04
2022-08-25T01:05:41.494Z,22.04
2022-08-25T01:08:09.181Z,22.06
2022-08-25T01:10:40.650Z,22.08
2022-08-25T01:13:14.596Z,22.11
2022-08-25T01:15:44.336Z,22.13
2022-08-25T01:18:11.774Z,22.13
2022-08-25T01:20:38.429Z,22.05
2022-08-25T01:23:04.900Z,22.14
2022-08-25T01:25:33.962Z,22.10
2022-08-25T01:28:01.095Z,22.09
2022-08-25T01:30:27.994Z,22.09
2022-08-25T01:32:54.472Z,22.03
2022-08-25T01:35:20.938Z,21.99
2022-08-25T01:37:48.248Z,22.00
2022-08-25T01:40:14.867Z,22.02
2022-08-25T01:42:57.905Z,22.02
2022-08-25T01:45:24.386Z,22.01
2022-08-25T01:47:52.214Z,21.98
2022-08-25T01:50:19.138Z,22.00
2022-08-25T01:52:57.278Z,21.87
2022-08-25T01:55:23.725Z,21.87
2022-08-25T01:57:50.162Z,21.86
2022-08-25T02:00:18.581Z,21.82
2022-08-25T02:02:45.044Z,21.82
2022-08-25T02:05:14.063Z,21.86
2022-08-25T02:07:42.259Z,21.88
2022-08-25T02:10:11.453Z,21.83
2022-08-25T02:12:38.718Z,21.89
2022-08-25T02:15:07.061Z,21.87
2022-08-25T02:17:36.568Z,21.82
2022-08-25T02:20:07.128Z,21.81
2022-08-25T02:22:33.539Z,21.82
2022-08-25T02:24:59.962Z,21.83
2022-08-25T02:27:26.355Z,21.73
2022-08-25T02:29:52.792Z,21.77
2022-08-25T02:32:19.232Z,21.82
2022-08-25T02:34:45.775Z,21.75
2022-08-25T02:37:12.857Z,21.72
2022-08-25T02:39:39.597Z,21.68
2022-08-25T02:42:06.174Z,21.64
2022-08-25T02:44:32.648Z,21.69
2022-08-25T02:46:59.290Z,21.79
2022-08-25T02:49:25.794Z,21.80
2022-08-25T02:51:52.264Z,21.80
2022-08-25T02:54:18.698Z,21.87
2022-08-25T02:56:45.180Z,21.94
2022-08-25T02:59:11.686Z,21.79
2022-08-25T03:01:38.183Z,21.81
2022-08-25T03:04:04.711Z,21.70
2022-08-25T03:06:31.193Z,21.68
2022-08-25T03:08:57.671Z,21.66
2022-08-25T03:11:25.566Z,21.60
2022-08-25T03:13:52.020Z,21.39
2022-08-25T03:16:19.276Z,21.34
2022-08-25T03:18:46.243Z,21.13
2022-08-25T03:21:13.335Z,21.08
2022-08-25T03:23:42.757Z,20.91
2022-08-25T03:26:28.426Z,20.73
2022-08-25T03:28:55.461Z,20.49
2022-08-25T03:31:23.149Z,20.37
2022-08-25T03:33:49.560Z,20.24
2022-08-25T03:36:16.082Z,20.20
2022-08-25T03:38:43.018Z,20.14
2022-08-25T03:41:15.079Z,20.08
2022-08-25T03:43:42.460Z,20.00
2022-08-25T03:46:09.022Z,19.93
2022-08-25T03:48:35.539Z,19.90
2022-08-25T03:51:01.917Z,19.95
2022-08-25T03:53:28.424Z,20.03
2022-08-25T03:55:54.827Z,20.12
2022-08-25T03:58:21.263Z,20.15
2022-08-25T04:00:48.744Z,20.19
2022-08-25T04:03:15.197Z,20.21
2022-08-25T04:05:41.621Z,20.28
2022-08-25T04:08:08.505Z,20.34
2022-08-25T04:10:36.974Z,20.44
2022-08-25T04:13:05.185Z,20.50
2022-08-25T04:15:31.651Z,20.52
2022-08-25T04:17:59.102Z,20.52
2022-08-25T04:20:26.245Z,20.46
2022-08-25T04:22:53.010Z,20.41
2022-08-25T04:25:20.026Z,20.45
2022-08-25T04:27:46.426Z,20.43
2022-08-25T04:30:13.415Z,20.44
2022-08-25T04:32:39.905Z,20.41
2022-08-25T04:35:07.488Z,20.41
2022-08-25T04:37:34.397Z,20.34
2022-08-25T04:40:01.664Z,20.24
2022-08-25T04:42:28.491Z,20.24
2022-08-25T04:44:54.970Z,20.15
2022-08-25T04:47:21.751Z,20.16
2022-08-25T04:49:48.196Z,20.16
2022-08-25T04:52:14.978Z,20.21
2022-08-25T04:54:42.173Z,20.25
2022-08-25T04:57:08.613Z,20.25
2022-08-25T04:59:35.108Z,20.15
2022-08-25T05:02:03.340Z,20.09
2022-08-25T05:04:31.212Z,20.15
2022-08-25T05:06:57.945Z,20.02
2022-08-25T05:09:25.247Z,20.00
2022-08-25T05:11:52.075Z,19.97
2022-08-25T05:14:21.653Z,19.93
2022-08-25T05:16:51.295Z,19.87
2022-08-25T05:19:17.814Z,19.71
2022-08-25T05:21:44.249Z,19.64
2022-08-25T05:24:10.846Z,19.61
2022-08-25T05:26:38.283Z,19.69
2022-08-25T05:29:06.209Z,19.64
2022-08-25T05:31:33.994Z,19.75
2022-08-25T05:34:05.716Z,19.88
2022-08-25T05:36:33.671Z,20.00
2022-08-25T05:39:00.821Z,20.05
2022-08-25T05:41:29.874Z,20.14
2022-08-25T05:43:57.016Z,20.12
2022-08-25T05:46:23.604Z,20.07
2022-08-25T05:48:50.413Z,20.03
2022-08-25T05:51:17.736Z,20.08
2022-08-25T05:53:49.848Z,20.21
2022-08-25T05:56:16.397Z,20.11
2022-08-25T05:58:43.455Z,20.12
2022-08-25T06:01:36.921Z,20.09
2022-08-25T06:04:03.656Z,20.01
2022-08-25T06:06:30.197Z,20.10
2022-08-25T06:08:56.602Z,20.11
2022-08-25T06:11:23.499Z,20.17
2022-08-25T06:13:50.031Z,20.27
2022-08-25T06:16:16.504Z,20.26
2022-08-25T06:18:42.986Z,20.36
2022-08-25T06:21:14.473Z,20.54
2022-08-25T06:23:41.585Z,20.70
2022-08-25T06:26:13.210Z,20.81
2022-08-25T06:28:48.015Z,20.83
2022-08-25T06:31:14.767Z,20.92
2022-08-25T06:33:41.299Z,21.00
2022-08-25T06:36:08.710Z,21.14
2022-08-25T06:38:35.465Z,21.35
2022-08-25T06:41:04.631Z,21.61
2022-08-25T06:43:33.139Z,22.09
2022-08-25T06:46:12.056Z,22.60
2022-08-25T06:48:39.143Z,22.70
2022-08-25T06:51:14.026Z,22.72
2022-08-25T06:53:41.181Z,22.70
2022-08-25T06:56:08.388Z,22.80
2022-08-25T06:58:35.384Z,22.86
2022-08-25T07:01:15.001Z,22.85
2022-08-25T07:03:46.793Z,22.81
2022-08-25T07:06:14.898Z,22.70
2022-08-25T07:08:45.580Z,22.71
2022-08-25T07:11:15.982Z,22.75
2022-08-25T07:13:43.419Z,22.89
2022-08-25T07:16:11.186Z,22.89
2022-08-25T07:18:38.564Z,22.98
2022-08-25T07:21:05.223Z,23.22
2022-08-25T07:23:35.949Z,23.24
2022-08-25T07:29:16.908Z,23.53
2022-08-25T07:31:53.443Z,23.60
2022-08-25T07:34:38.983Z,23.65
2022-08-25T07:37:05.532Z,23.77
2022-08-25T07:39:33.712Z,23.83
2022-08-25T07:42:00.495Z,23.84
2022-08-25T07:44:28.687Z,23.93
2022-08-25T07:46:55.634Z,24.07
2022-08-25T07:49:24.040Z,24.55
2022-08-25T07:52:05.733Z,25.20
2022-08-25T07:54:35.553Z,25.61
2022-08-25T07:57:08.852Z,25.80
2022-08-25T07:59:40.142Z,25.84
2022-08-25T08:02:17.779Z,26.26
2022-08-25T08:04:48.395Z,26.71
2022-08-25T08:07:20.103Z,26.61
2022-08-25T08:09:55.872Z,26.91
2022-08-25T08:12:23.415Z,27.05
2022-08-25T08:14:51.341Z,26.69
2022-08-25T08:17:18.215Z,26.45
2022-08-25T08:19:45.383Z,26.67
2022-08-25T08:22:15.473Z,26.63
2022-08-25T08:24:54.126Z,26.81
2022-08-25T08:27:21.602Z,26.99
2022-08-25T08:29:48.478Z,27.07
2022-08-25T08:32:14.910Z,26.73
2022-08-25T08:34:41.730Z,26.68
2022-08-25T08:37:10.422Z,26.89
2022-08-25T08:39:37.767Z,26.88
2022-08-25T08:42:46.860Z,26.83
2022-08-25T08:45:28.459Z,26.98
2022-08-25T08:48:23.355Z,27.14
2022-08-25T08:51:34.757Z,27.14
2022-08-25T08:54:15.608Z,27.31
2022-08-25T08:56:48.291Z,27.08
2022-08-25T08:59:22.298Z,27.06
2022-08-25T09:02:00.439Z,26.88
2022-08-25T09:04:46.004Z,27.06
2022-08-25T09:07:30.078Z,27.17
2022-08-25T09:09:59.151Z,27.88
2022-08-25T09:12:25.481Z,28.86
2022-08-25T09:15:12.859Z,29.45
2022-08-25T09:18:01.819Z,29.91
2022-08-25T09:20:42.611Z,29.88
2022-08-25T09:23:25.149Z,29.93
2022-08-25T09:26:18.275Z,30.17
2022-08-25T09:28:51.239Z,30.36
2022-08-25T09:31:32.100Z,30.36
2022-08-25T09:34:02.670Z,30.54
2022-08-25T09:36:34.261Z,30.04
2022-08-25T09:39:04.607Z,30.23
2022-08-25T09:41:52.069Z,30.72
2022-08-25T09:44:26.700Z,30.96
2022-08-25T09:47:08.542Z,30.85
2022-08-25T09:50:04.594Z,30.75
2022-08-25T09:52:41.244Z,31.06
2022-08-25T09:55:08.029Z,30.96
2022-08-25T09:57:37.228Z,30.46
2022-08-25T10:00:26.677Z,30.22
2022-08-25T10:03:22.735Z,29.91
2022-08-25T10:06:13.554Z,29.68
2022-08-25T10:08:55.507Z,29.22
2022-08-25T10:11:44.119Z,29.07
2022-08-25T10:14:26.270Z,29.30
2022-08-25T10:17:11.028Z,29.24
2022-08-25T10:19:38.619Z,29.29
2022-08-25T10:22:11.194Z,28.98
2022-08-25T10:24:40.974Z,29.11
2022-08-25T10:27:45.946Z,29.39
2022-08-25T10:30:31.412Z,29.25
2022-08-25T10:33:06.855Z,29.19
2022-08-25T10:35:55.391Z,29.28
2022-08-25T10:38:37.798Z,29.31
2022-08-25T10:41:24.837Z,29.46
2022-08-25T10:44:00.812Z,29.69
2022-08-25T10:46:38.623Z,29.83
2022-08-25T10:49:18.447Z,29.91
2022-08-25T10:52:03.023Z,29.86
2022-08-25T10:54:46.752Z,29.69
2022-08-25T10:57:46.655Z,29.90
2022-08-25T11:00:18.433Z,30.02
2022-08-25T11:03:06.084Z,30.01
2022-08-25T11:05:40.047Z,30.12
2022-08-25T11:08:36.482Z,30.37
2022-08-25T11:11:21.720Z,30.70
2022-08-25T11:14:09.213Z,30.77
2022-08-25T11:16:39.081Z,30.69
2022-08-25T11:19:17.624Z,30.95
2022-08-25T11:21:59.049Z,30.94
2022-08-25T11:24:43.173Z,31.14
2022-08-25T11:27:17.451Z,30.85
2022-08-25T11:29:53.349Z,30.86
2022-08-25T11:32:22.495Z,30.82
2022-08-25T11:34:49.254Z,30.92
2022-08-25T11:37:25.437Z,31.14
2022-08-25T11:39:54.761Z,31.14
2022-08-25T11:42:28.529Z,31.28
2022-08-25T11:45:07.772Z,31.25
2022-08-25T11:48:03.880Z,30.99
2022-08-25T11:50:36.716Z,31.20
2022-08-25T11:53:28.423Z,31.49
2022-08-25T11:56:09.192Z,31.49
2022-08-25T11:58:42.748Z,31.47
2022-08-25T12:01:10.806Z,31.46
2022-08-25T12:03:37.160Z,31.29
2022-08-25T12:06:26.299Z,31.14
2022-08-25T12:09:17.103Z,31.05
2022-08-25T12:11:48.256Z,31.02
2022-08-25T12:14:28.124Z,31.02
2022-08-25T12:16:54.894Z,30.90
2022-08-25T12:19:36.762Z,30.67
2022-08-25T12:22:04.467Z,30.75
2022-08-25T12:24:47.640Z,30.90
2022-08-25T12:27:34.210Z,31.06
2022-08-25T12:30:20.690Z,30.99
2022-08-25T12:33:05.191Z,31.16
2022-08-25T12:36:00.183Z,31.20
2022-08-25T12:38:42.516Z,31.21
2022-08-25T12:41:13.784Z,31.08
2022-08-25T12:43:47.982Z,31.08
2022-08-25T12:46:23.865Z,31.00
2022-08-25T12:49:15.425Z,31.24
2022-08-25T12:52:00.070Z,31.36
2022-08-25T12:54:48.677Z,31.46
2022-08-25T12:57:40.464Z,31.41
2022-08-25T13:03:21.940Z,31.51
2022-08-25T13:06:10.070Z,31.44
2022-08-25T13:08:57.464Z,31.54
2022-08-25T13:11:43.223Z,31.31
2022-08-25T13:14:41.086Z,31.36
2022-08-25T13:17:11.807Z,31.25
2022-08-25T13:19:38.693Z,31.15
2022-08-25T13:22:17.629Z,31.14
2022-08-25T13:24:50.592Z,31.24
2022-08-25T13:27:36.900Z,31.12
2022-08-25T13:30:05.944Z,31.11
2022-08-25T13:32:36.687Z,31.14
2022-08-25T13:35:17.790Z,31.17
2022-08-25T13:37:46.953Z,31.15
2022-08-25T13:40:17.957Z,31.22
2022-08-25T13:42:54.492Z,31.27
2022-08-25T13:45:34.737Z,31.30
2022-08-25T13:48:21.175Z,31.41
2022-08-25T13:50:52.691Z,31.55
2022-08-25T13:53:25.724Z,31.57
2022-08-25T13:55:57.438Z,31.63
2022-08-25T13:58:39.386Z,31.74
2022-08-25T14:01:46.168Z,31.76
2022-08-25T14:04:21.378Z,31.92
2022-08-25T14:06:48.397Z,31.94
2022-08-25T14:09:18.318Z,32.03
2022-08-25T14:11:58.344Z,32.20
2022-08-25T14:14:24.673Z,32.18
2022-08-25T14:16:59.660Z,32.20
2022-08-25T14:19:28.009Z,31.97
2022-08-25T14:21:56.635Z,32.02
2022-08-25T14:24:23.730Z,32.07
2022-08-25T14:26:54.421Z,31.99
2022-08-25T14:29:22.048Z,31.90
2022-08-25T14:31:49.090Z,31.85
2022-08-25T14:34:22.613Z,31.82
2022-08-25T14:36:50.778Z,31.73
2022-08-25T14:39:17.940Z,31.57
2022-08-25T14:41:47.535Z,31.63
2022-08-25T14:44:20.389Z,31.71
2022-08-25T14:46:54.150Z,31.78
2022-08-25T14:49:29.665Z,31.66
2022-08-25T14:52:01.154Z,31.76
2022-08-25T14:54:29.053Z,31.77
2022-08-25T14:56:57.692Z,31.79
2022-08-25T14:59:25.560Z,31.88
2022-08-25T15:01:55.079Z,31.85
2022-08-25T15:04:28.574Z,31.75
2022-08-25T15:07:01.556Z,31.78
2022-08-25T15:09:33.758Z,31.68
2022-08-25T15:12:00.384Z,31.71
2022-08-25T15:14:29.228Z,31.65
2022-08-25T15:17:01.584Z,31.64
2022-08-25T15:19:28.972Z,31.76
2022-08-25T15:21:58.259Z,31.76
2022-08-25T15:24:27.076Z,31.88
2022-08-25T15:26:59.241Z,32.03
2022-08-25T15:29:29.646Z,31.86
2022-08-25T15:31:56.800Z,31.63
2022-08-25T15:34:23.204Z,31.77
2022-08-25T15:36:50.707Z,31.92
2022-08-25T15:39:19.010Z,31.91
2022-08-25T15:41:49.393Z,31.94
2022-08-25T15:44:16.050Z,32.09
2022-08-25T15:46:47.106Z,31.99
2022-08-25T15:49:20.394Z,32.03
2022-08-25T15:51:50.897Z,32.04
2022-08-25T15:54:17.327Z,31.96
2022-08-25T15:56:44.372Z,32.00
2022-08-25T15:59:13.364Z,32.09
2022-08-25T16:01:40.952Z,32.25
2022-08-25T16:04:07.483Z,32.56
2022-08-25T16:06:34.128Z,32.70
2022-08-25T16:09:01.089Z,32.84
2022-08-25T16:11:30.785Z,32.92
2022-08-25T16:13:57.843Z,33.13
2022-08-25T16:16:26.276Z,32.88
2022-08-25T16:18:53.368Z,33.06
2022-08-25T16:21:29.147Z,32.98
2022-08-25T16:23:59.851Z,32.81
2022-08-25T16:26:30.410Z,32.72
2022-08-25T16:28:56.973Z,33.00
2022-08-25T16:31:24.104Z,33.23
2022-08-25T16:33:53.543Z,33.62
2022-08-25T16:36:27.122Z,33.46
2022-08-25T16:38:56.758Z,33.20
2022-08-25T16:41:35.657Z,32.94
2022-08-25T16:44:04.416Z,32.98
2022-08-25T16:46:31.078Z,32.90
2022-08-25T16:49:04.107Z,32.55
2022-08-25T16:51:32.601Z,32.38
2022-08-25T16:54:20.389Z,32.18
2022-08-25T16:56:48.731Z,31.99
2022-08-25T16:59:20.286Z,31.85
2022-08-25T17:01:46.874Z,31.67
2022-08-25T17:04:13.477Z,31.68
2022-08-25T17:06:42.394Z,31.59
2022-08-25T17:09:22.831Z,31.55
2022-08-25T17:11:52.666Z,31.37
2022-08-25T17:14:21.637Z,31.35
2022-08-25T17:16:48.652Z,31.33
2022-08-25T17:19:17.942Z,31.24
2022-08-25T17:21:46.142Z,31.25
2022-08-25T17:24:13.834Z,31.24
2022-08-25T17:26:42.239Z,31.17
2022-08-25T17:29:09.930Z,31.01
2022-08-25T17:31:39.723Z,31.02
2022-08-25T17:34:10.165Z,30.91
2022-08-25T17:36:37.267Z,30.84
2022-08-25T17:39:04.852Z,30.80
2022-08-25T17:41:33.172Z,30.74
2022-08-25T17:44:04.443Z,30.66
2022-08-25T17:46:31.395Z,30.63
2022-08-25T17:48:57.864Z,30.65
2022-08-25T17:51:24.927Z,30.62
2022-08-25T17:53:52.774Z,30.57
2022-08-25T17:56:22.006Z,30.62
2022-08-25T17:58:49.483Z,30.60
2022-08-25T18:01:22.650Z,30.59
2022-08-25T18:03:49.377Z,30.50
2022-08-25T18:06:16.327Z,30.49
2022-08-25T18:08:44.398Z,30.45
2022-08-25T18:11:18.007Z,30.38
2022-08-25T18:13:44.903Z,30.32
2022-08-25T18:16:13.218Z,30.25
2022-08-25T18:18:40.614Z,30.22
2022-08-25T18:21:17.035Z,30.22
2022-08-25T18:23:44.890Z,30.11
2022-08-25T18:26:13.199Z,30.05
2022-08-25T18:28:40.168Z,30.02
2022-08-25T18:31:12.006Z,29.97
2022-08-25T18:33:42.077Z,29.94
2022-08-25T18:36:09.389Z,29.84
2022-08-25T18:38:57.953Z,29.78
2022-08-25T18:41:25.963Z,29.72
2022-08-25T18:43:53.123Z,29.63
2022-08-25T18:46:22.688Z,29.59
2022-08-25T18:48:49.940Z,29.46
2022-08-25T18:51:23.108Z,29.28
2022-08-25T18:53:51.071Z,29.19
2022-08-25T18:56:19.319Z,29.16
2022-08-25T18:58:47.598Z,29.01
2022-08-25T19:01:15.891Z,28.90
2022-08-25T19:03:44.278Z,28.86
2022-08-25T19:06:11.017Z,28.81
2022-08-25T19:08:39.483Z,28.79
2022-08-25T19:11:09.787Z,28.69
2022-08-25T19:13:37.372Z,28.67
2022-08-25T19:16:51.734Z,28.59
2022-08-25T19:19:19.126Z,28.53
2022-08-25T19:21:48.341Z,28.50
2022-08-25T19:24:17.396Z,28.43
2022-08-25T19:26:44.232Z,28.41
2022-08-25T19:29:13.713Z,28.39
2022-08-25T19:31:42.409Z,28.37
2022-08-25T19:34:13.438Z,28.22
2022-08-25T19:36:40.527Z,28.08
2022-08-25T19:39:09.439Z,27.98
2022-08-25T19:41:36.415Z,27.90
2022-08-25T19:44:03.173Z,27.87
2022-08-25T19:46:35.524Z,27.74
2022-08-25T19:49:16.232Z,27.72
2022-08-25T19:51:47.199Z,27.68
2022-08-25T19:54:21.188Z,27.64
2022-08-25T19:56:54.546Z,27.57
2022-08-25T19:59:34.246Z,27.44
2022-08-25T20:02:10.823Z,27.44
2022-08-25T20:04:37.371Z,27.41
2022-08-25T20:07:04.009Z,27.38
2022-08-25T20:09:39.616Z,27.30
2022-08-25T20:12:10.310Z,27.24
2022-08-25T20:14:37.133Z,27.19
2022-08-25T20:17:14.358Z,27.11
2022-08-25T20:19:45.641Z,27.08
2022-08-25T20:22:12.136Z,27.04
2022-08-25T20:24:55.841Z,26.93
2022-08-25T20:27:33.021Z,26.96
2022-08-25T20:29:59.966Z,26.86
2022-08-25T20:32:29.488Z,26.79
2022-08-25T20:34:56.047Z,26.75
2022-08-25T20:37:26.345Z,26.72
2022-08-25T20:39:53.021Z,26.63
2022-08-25T20:42:19.680Z,26.62
2022-08-25T20:44:47.049Z,26.56
2022-08-25T20:47:14.902Z,26.52
2022-08-25T20:49:44.539Z,26.52
2022-08-25T20:52:11.995Z,26.50
2022-08-25T20:54:40.168Z,26.50
2022-08-25T20:57:07.946Z,26.48
2022-08-25T20:59:34.642Z,26.49
2022-08-25T21:02:01.541Z,26.41
2022-08-25T21:04:31.922Z,26.37
2022-08-25T21:07:01.027Z,26.33
2022-08-25T21:09:28.649Z,26.25
2022-08-25T21:11:56.820Z,26.24
2022-08-25T21:14:25.190Z,26.13
2022-08-25T21:16:53.658Z,26.05
2022-08-25T21:19:26.565Z,26.00
2022-08-25T21:21:59.734Z,25.99
2022-08-25T21:24:28.391Z,26.00
2022-08-25T21:26:57.688Z,25.87
2022-08-25T21:29:28.488Z,25.76
2022-08-25T21:31:56.146Z,25.73
2022-08-25T21:34:22.695Z,25.68
2022-08-25T21:36:49.164Z,25.61
2022-08-25T21:39:17.920Z,25.53
2022-08-25T21:41:45.426Z,25.42
2022-08-25T21:44:12.829Z,25.26
2022-08-25T21:46:40.983Z,25.13
2022-08-25T21:49:08.453Z,25.13
2022-08-25T21:51:40.748Z,25.11
2022-08-25T21:54:10.118Z,25.12
2022-08-25T21:56:38.369Z,25.08
2022-08-25T21:59:07.443Z,25.04
2022-08-25T22:01:35.180Z,25.01
2022-08-25T22:04:03.352Z,25.05
2022-08-25T22:06:32.400Z,24.97
2022-08-25T22:08:58.883Z,24.91
2022-08-25T22:11:26.355Z,24.85
2022-08-25T22:13:53.356Z,24.79
2022-08-25T22:16:21.987Z,24.89
2022-08-25T22:18:50.033Z,24.99
2022-08-25T22:21:19.164Z,25.01
2022-08-25T22:23:45.911Z,24.90
2022-08-25T22:26:15.292Z,24.82
2022-08-25T22:28:43.751Z,24.73
2022-08-25T22:31:13.644Z,24.71
2022-08-25T22:33:48.448Z,24.74
2022-08-25T22:36:21.385Z,24.81
2022-08-25T22:38:48.638Z,24.83
2022-08-25T22:41:19.180Z,24.78
2022-08-25T22:43:49.347Z,24.75
2022-08-25T22:46:18.795Z,24.61
2022-08-25T22:48:46.146Z,24.53
2022-08-25T22:51:21.923Z,24.57
2022-08-25T22:53:49.152Z,24.51
2022-08-25T22:56:18.489Z,24.49
2022-08-25T22:58:51.852Z,24.58
2022-08-25T23:01:20.298Z,24.63
2022-08-25T23:03:47.636Z,24.63
2022-08-25T23:06:24.835Z,24.63
2022-08-25T23:08:53.838Z,24.52
2022-08-25T23:11:21.703Z,24.51
2022-08-25T23:13:48.313Z,24.53
2022-08-25T23:16:15.712Z,24.48
2022-08-25T23:18:44.670Z,24.46
2022-08-25T23:21:35.144Z,24.45
2022-08-25T23:24:07.620Z,24.46
2022-08-25T23:26:34.540Z,24.40
2022-08-25T23:29:01.484Z,24.22
2022-08-25T23:31:30.197Z,24.03
2022-08-25T23:33:57.951Z,24.01
2022-08-25T23:36:24.499Z,23.88
2022-08-25T23:38:52.113Z,23.78
2022-08-25T23:41:22.600Z,23.71
2022-08-25T23:43:50.039Z,23.63
2022-08-25T23:46:18.927Z,23.65
2022-08-25T23:48:47.958Z,23.68
2022-08-25T23:51:23.950Z,23.63
2022-08-25T23:53:51.813Z,23.65
2022-08-25T23:56:18.256Z,23.62
2022-08-25T23:58:45.166Z,23.56
